Time;durP1;ratioP1;P1;durP2;ratioP2;P2;SDS_P1;SDS_P2;PMS_P1;PMS_P2;Temp;Humidity;BMP_temperature;BMP_pressure;BME280_temperature;BME280_humidity;BME280_pressure;Samples;Min_cycle;Max_cycle;Signal;HPM_P1;HPM_P2
2023/02/22 00:01:17;;;;;;;;;;;;;;;17.70;67.60;101034.33;2161365;80;23076;-75
2023/02/22 01:26:04;;;;;;;;;;;;;;;;;;;;;
2023/02/22 01:39:22;;;;;;;;;;;;;;;17.67;68.77;101019.44;2108224;80;22868;-74
2023/02/22 01:42:35;;;;;;;;;;;;;;;17.70;68.38;101014.25;2162349;80;22686;-75
2023/02/22 01:49:09;;;;;;;;;;;;;;;17.71;68.50;101011.93;2022333;84;23331;-74
2023/02/22 01:52:22;;;;;;;;;;;;;;;17.74;68.31;101019.11;2067355;83;50351;-75
2023/02/22 02:22:13;;;;;;;;;;;;;;;17.77;68.09;100996.53;2091769;80;23432;-73
2023/02/22 03:15:34;;;;;;;;;;;;;;;17.73;68.42;100988.02;2053574;84;23461;-73
2023/02/22 03:22:04;;;;;;;;;;;;;;;17.73;68.43;100981.83;2140630;80;23346;-74
2023/02/22 03:41:43;;;;;;;;;;;;;;;;;;;;;
2023/02/22 03:44:54;;;;;;;;;;;;;;;;;;;;;
2023/02/22 03:52:12;;;;;;;;;;;;;;;;;;;;;
2023/02/22 04:02:18;;;;;;;;;;;;;;;17.78;68.04;100984.33;2329502;73;22864;-74
2023/02/22 04:15:38;;;;;;;;;;;;;;;;;;;;;
2023/02/22 05:17:32;;;;;;;;;;;;;;;17.73;68.24;100972.46;2176313;80;22365;-74
2023/02/22 05:30:25;;;;;;;;;;;;;;;17.68;68.48;100977.48;2121807;84;22392;-73
2023/02/22 06:16:32;;;;;;;;;;;;;;;17.60;66.75;100987.70;1951280;89;22815;-74
2023/02/22 06:23:26;;;;;;;;;;;;;;;;;;;;;
2023/02/22 06:32:57;;;;;;;;;;;;;;;17.53;66.67;101006.24;1901926;89;24135;-75
2023/02/22 06:36:14;;;;;;;;;;;;;;;17.54;66.57;100995.86;1956699;89;22308;-73
2023/02/22 07:02:25;;;;;;;;;;;;;;;17.55;66.25;101014.95;1917984;91;22707;-74
2023/02/22 07:05:26;;;;;;;;;;;;;;;17.55;66.43;101021.64;1959347;89;49851;-75
2023/02/22 07:08:28;;;;;;;;;;;;;;;17.53;66.28;101024.97;1941016;90;51024;-75
2023/02/22 07:11:30;;;;;;;;;;;;;;;17.58;65.72;101017.28;1945443;90;51599;-75
2023/02/22 07:14:31;;;;;;;;;;;;;;;17.57;65.83;101020.97;1945598;90;51502;-75
2023/02/22 07:17:33;;;;;;;;;;;;;;;17.57;65.69;101029.00;1945614;90;50315;-75
2023/02/22 07:20:35;;;;;;;;;;;;;;;17.59;65.59;101032.32;1945597;90;51047;-75
2023/02/22 07:23:36;;;;;;;;;;;;;;;17.58;65.90;101029.33;1948953;90;51499;-74
2023/02/22 07:26:41;;;;;;;;;;;;;;;17.58;65.81;101033.84;1971249;90;51519;-76
2023/02/22 07:29:43;;;;;;;;;;;;;;;17.57;65.85;101038.37;1983180;89;51493;-76
2023/02/22 07:32:44;;;;;;;;;;;;;;;17.58;65.66;101033.34;1984900;89;51030;-76
2023/02/22 07:35:47;;;;;;;;;;;;;;;17.56;65.63;101027.31;1996695;87;50798;-74
2023/02/22 07:38:48;;;;;;;;;;;;;;;17.55;65.43;101028.33;2048841;84;50391;-75
2023/02/22 07:41:50;;;;;;;;;;;;;;;17.57;65.82;101030.34;2107669;84;50651;-74
2023/02/22 07:44:51;;;;;;;;;;;;;;;17.54;65.75;101031.98;2107841;83;50705;-76
2023/02/22 07:47:53;;;;;;;;;;;;;;;17.53;65.93;101020.13;2107453;84;51503;-75
2023/02/22 07:50:54;;;;;;;;;;;;;;;17.51;65.97;101022.95;2119530;81;50905;-75
2023/02/22 07:53:56;;;;;;;;;;;;;;;17.53;65.85;101030.33;2186349;78;50621;-75
2023/02/22 07:56:58;;;;;;;;;;;;;;;17.53;65.75;101034.34;2218939;79;51607;-73
2023/02/22 07:59:59;;;;;;;;;;;;;;;17.55;65.64;101029.66;2243323;79;51498;-74
2023/02/22 08:03:01;;;;;;;;;;;;;;;17.54;65.47;101031.98;2184758;80;51478;-74
2023/02/22 08:06:03;;;;;;;;;;;;;;;17.53;65.31;101033.00;2204091;79;51465;-74
2023/02/22 08:09:05;;;;;;;;;;;;;;;17.54;65.35;101034.66;2160078;80;49694;-75
2023/02/22 08:12:06;;;;;;;;;;;;;;;17.53;65.70;101035.67;2184759;80;50542;-76
2023/02/22 08:15:08;;;;;;;;;;;;;;;17.56;65.82;101038.52;2184692;80;51634;-76
2023/02/22 08:18:11;;;;;;;;;;;;;;;17.54;65.71;101041.86;2207277;80;51564;-75
2023/02/22 08:21:13;;;;;;;;;;;;;;;17.58;65.39;101034.67;2164091;79;51006;-76
2023/02/22 08:24:14;;;;;;;;;;;;;;;17.58;65.13;101037.86;2222892;79;51588;-75
2023/02/22 08:27:16;;;;;;;;;;;;;;;17.60;64.99;101031.84;2223083;79;50719;-76
2023/02/22 08:30:19;;;;;;;;;;;;;;;17.59;65.11;101038.18;2226184;78;50730;-75
2023/02/22 08:33:20;;;;;;;;;;;;;;;17.55;65.17;101036.35;2213005;79;49610;-76
2023/02/22 08:36:22;;;;;;;;;;;;;;;17.57;65.31;101038.37;2222388;79;50774;-74
2023/02/22 08:39:23;;;;;;;;;;;;;;;17.57;65.51;101037.50;2231276;78;50458;-74
2023/02/22 08:42:25;;;;;;;;;;;;;;;17.57;65.31;101033.48;2192763;80;50764;-72
2023/02/22 08:45:27;;;;;;;;;;;;;;;17.57;65.34;101033.48;2169271;80;50965;-72
2023/02/22 08:48:28;;;;;;;;;;;;;;;17.57;65.29;101033.02;2214317;80;50394;-72
2023/02/22 08:51:31;;;;;;;;;;;;;;;17.54;65.37;101031.98;2192197;80;50714;-72
2023/02/22 08:54:33;;;;;;;;;;;;;;;17.55;65.50;101031.00;2215299;80;50730;-74
2023/02/22 08:57:35;;;;;;;;;;;;;;;17.53;65.50;101026.82;2186108;80;51013;-74
2023/02/22 09:00:37;;;;;;;;;;;;;;;17.54;65.38;101025.80;2206603;80;51540;-75
2023/02/22 09:03:39;;;;;;;;;;;;;;;17.56;65.18;101031.83;2206868;80;50511;-74
2023/02/22 09:06:41;;;;;;;;;;;;;;;17.54;65.25;101034.66;2194539;79;50411;-74
2023/02/22 09:09:43;;;;;;;;;;;;;;;17.53;65.48;101028.16;2223728;78;51456;-74
2023/02/22 09:12:44;;;;;;;;;;;;;;;17.51;65.52;101032.33;2251038;79;50449;-75
2023/02/22 09:15:46;;;;;;;;;;;;;;;17.54;65.48;101028.48;2227994;79;51609;-75
2023/02/22 09:18:47;;;;;;;;;;;;;;;17.54;65.46;101030.64;2234300;78;51500;-74
2023/02/22 09:21:53;;;;;;;;;;;;;;;17.50;65.50;101030.66;2227956;79;51008;-75
2023/02/22 09:24:54;;;;;;;;;;;;;;;17.54;65.54;101028.48;2251510;79;50734;-75
2023/02/22 09:27:56;;;;;;;;;;;;;;;17.67;65.21;101029.31;2246361;79;51390;-75
2023/02/22 09:30:58;;;;;;;;;;;;;;;17.78;64.84;101039.70;2219154;79;50493;-75
2023/02/22 09:33:59;;;;;;;;;;;;;;;17.83;64.66;101033.37;2219133;79;50546;-75
2023/02/22 09:37:01;;;;;;;;;;;;;;;17.85;64.50;101036.69;2233059;79;50422;-75
2023/02/22 09:40:08;;;;;;;;;;;;;;;17.84;64.50;101035.03;2227180;79;50414;-75
2023/02/22 09:43:07;;;;;;;;;;;;;;;17.77;64.70;101028.13;2251922;79;22265;-75
2023/02/22 09:46:17;;;;;;;;;;;;;;;17.77;64.73;101029.98;2220937;79;50253;-74
2023/02/22 09:49:36;;;;;;;;;;;;;;;17.70;65.00;101027.64;2252284;79;22200;-76
2023/02/22 09:52:39;;;;;;;;;;;;;;;17.64;65.14;101021.95;2253363;79;22158;-75
2023/02/22 09:55:42;;;;;;;;;;;;;;;17.60;65.29;101022.48;2253872;79;51460;-76
2023/02/22 09:58:45;;;;;;;;;;;;;;;17.62;65.29;101026.66;2229552;79;50972;-75
2023/02/22 10:01:47;;;;;;;;;;;;;;;17.64;65.15;101015.77;2253811;78;51538;-75
2023/02/22 10:04:56;;;;;;;;;;;;;;;17.69;65.03;101014.77;2253569;78;50373;-74
2023/02/22 10:07:59;;;;;;;;;;;;;;;17.69;65.00;101017.95;2228806;78;50407;-74
2023/02/22 10:11:03;;;;;;;;;;;;;;;17.68;65.01;101017.63;2254358;78;50455;-74
2023/02/22 10:14:22;;;;;;;;;;;;;;;17.66;65.11;101015.11;2254048;78;50536;-74
2023/02/22 10:17:29;;;;;;;;;;;;;;;17.61;65.25;101011.59;2254439;79;51551;-74
2023/02/22 10:20:39;;;;;;;;;;;;;;;17.61;65.32;101014.77;2253922;79;50739;-73
2023/02/22 10:23:42;;;;;;;;;;;;;;;17.59;65.32;101016.77;2254200;79;51593;-74
2023/02/22 10:26:45;;;;;;;;;;;;;;;17.61;65.28;101008.08;2253776;78;50731;-74
2023/02/22 10:29:54;;;;;;;;;;;;;;;17.59;65.30;101010.09;2248544;78;51539;-74
2023/02/22 10:33:00;;;;;;;;;;;;;;;17.59;65.30;101003.39;2256442;77;51500;-74
2023/02/22 10:36:02;;;;;;;;;;;;;;;17.72;64.93;100997.53;2220286;79;51209;-74
2023/02/22 10:39:11;;;;;;;;;;;;;;;17.83;64.61;101000.74;2254749;78;51572;-74
2023/02/22 10:42:14;;;;;;;;;;;;;;;17.90;64.35;101003.56;2248048;78;51660;-74
2023/02/22 10:45:21;;;;;;;;;;;;;;;17.89;64.33;100999.22;2249115;79;50439;-74
2023/02/22 10:48:23;;;;;;;;;;;;;;;17.89;64.29;100993.88;2230796;79;50058;-74
2023/02/22 10:51:25;;;;;;;;;;;;;;;17.87;64.34;101003.08;2255231;79;50426;-77
2023/02/22 10:54:28;;;;;;;;;;;;;;;17.83;64.62;100998.58;2255318;79;50368;-77
2023/02/22 10:57:31;;;;;;;;;;;;;;;17.80;64.80;100989.52;2248042;79;50422;-74
2023/02/22 11:00:36;;;;;;;;;;;;;;;17.79;64.80;100993.19;2253516;79;50430;-75
2023/02/22 11:03:36;;;;;;;;;;;;;;;17.79;64.83;100990.51;2253988;78;22201;-76
2023/02/22 11:06:39;;;;;;;;;;;;;;;17.77;65.43;100992.00;2253911;79;50431;-75
2023/02/22 11:09:49;;;;;;;;;;;;;;;17.74;65.95;100991.01;2253508;78;51481;-75
2023/02/22 11:12:52;;;;;;;;;;;;;;;17.74;65.72;100989.67;2224526;79;51171;-75
2023/02/22 11:15:54;;;;;;;;;;;;;;;17.75;65.58;100991.36;2253948;79;51513;-73
2023/02/22 11:19:00;;;;;;;;;;;;;;;17.72;65.44;100996.20;2253523;78;50444;-73
2023/02/22 11:22:06;;;;;;;;;;;;;;;17.71;66.72;100994.03;2253340;78;51549;-70
2023/02/22 11:25:07;;;;;;;;;;;;;;;17.71;66.76;100986.51;2204079;80;49848;-71
2023/02/22 11:28:13;;;;;;;;;;;;;;;17.68;67.06;100987.68;2216135;80;50407;-71
2023/02/22 11:31:15;;;;;;;;;;;;;;;17.67;66.93;100985.16;2209844;80;22322;-72
2023/02/22 11:34:34;;;;;;;;;;;;;;;17.70;66.63;100978.98;2214072;80;51556;-75
2023/02/22 11:37:36;;;;;;;;;;;;;;;17.68;66.79;100975.64;2191744;80;50223;-73
2023/02/22 11:40:38;;;;;;;;;;;;;;;17.69;67.03;100973.80;2215795;80;50682;-73
2023/02/22 11:43:40;;;;;;;;;;;;;;;17.68;67.06;100966.78;2215962;80;51486;-71
2023/02/22 11:46:42;;;;;;;;;;;;;;;17.68;66.97;100968.12;2216427;80;51517;-72
2023/02/22 11:49:44;;;;;;;;;;;;;;;17.67;66.97;100969.11;2213159;80;51488;-73
2023/02/22 11:52:46;;;;;;;;;;;;;;;17.64;67.19;100955.56;2237103;79;51465;-75
2023/02/22 11:56:06;;;;;;;;;;;;;;;17.64;67.16;100955.05;2255306;78;50392;-74
2023/02/22 11:59:13;;;;;;;;;;;;;;;17.62;67.20;100948.20;2254255;79;51528;-74
2023/02/22 12:02:32;;;;;;;;;;;;;;;17.59;67.45;100950.70;2229175;79;52585;-74
2023/02/22 12:05:41;;;;;;;;;;;;;;;17.60;67.65;100948.89;2255678;79;50379;-73
2023/02/22 12:08:50;;;;;;;;;;;;;;;17.62;67.43;100949.53;2255327;79;50744;-74
2023/02/22 12:11:59;;;;;;;;;;;;;;;17.68;66.95;100944.03;2255259;79;51275;-76
2023/02/22 12:15:19;;;;;;;;;;;;;;;17.78;66.59;100942.01;2224225;79;51007;-74
2023/02/22 12:18:34;;;;;;;;;;;;;;;17.89;66.24;100942.17;2257625;79;51567;-72
2023/02/22 12:21:37;;;;;;;;;;;;;;;17.98;65.90;100940.66;2254086;79;53062;-73
2023/02/22 12:24:40;;;;;;;;;;;;;;;17.99;65.87;100943.65;2257990;78;51563;-73
2023/02/22 12:27:44;;;;;;;;;;;;;;;18.00;65.82;100935.94;2256581;78;50825;-75
2023/02/22 12:30:46;;;;;;;;;;;;;;;17.96;65.92;100936.48;2255458;79;50830;-74
2023/02/22 12:33:49;;;;;;;;;;;;;;;17.93;66.04;100938.13;2254752;79;51487;-74
2023/02/22 12:36:52;;;;;;;;;;;;;;;17.85;66.31;100936.31;2254267;79;51442;-74
2023/02/22 12:40:08;;;;;;;;;;;;;;;17.80;66.44;100932.83;2228944;79;51183;-75
2023/02/22 12:43:15;;;;;;;;;;;;;;;17.75;66.83;100936.97;2254278;79;51575;-76
2023/02/22 12:46:18;;;;;;;;;;;;;;;17.73;66.97;100930.98;2254518;79;22170;-74
2023/02/22 12:49:21;;;;;;;;;;;;;;;17.75;66.81;100931.62;2253577;79;51644;-75
2023/02/22 12:52:27;;;;;;;;;;;;;;;17.89;66.40;100936.31;2233265;78;50960;-74
2023/02/22 12:55:33;;;;;;;;;;;;;;;17.98;66.10;100935.30;2252975;79;50891;-74
2023/02/22 12:58:39;;;;;;;;;;;;;;;18.04;65.88;100935.94;2253593;79;51474;-74
2023/02/22 13:01:42;;;;;;;;;;;;;;;18.05;65.83;100934.91;2252649;78;50435;-74
2023/02/22 13:04:44;;;;;;;;;;;;;;;18.04;65.80;100933.26;2231018;79;50931;-74
2023/02/22 13:07:47;;;;;;;;;;;;;;;18.00;65.95;100935.94;2253682;79;50759;-75
2023/02/22 13:11:07;;;;;;;;;;;;;;;17.90;66.24;100932.62;2253684;79;50315;-72
2023/02/22 13:14:28;;;;;;;;;;;;;;;17.84;66.54;100929.30;2254062;79;50173;-74
2023/02/22 13:17:38;;;;;;;;;;;;;;;17.79;66.96;100930.28;2230459;79;50117;-74
2023/02/22 13:20:50;;;;;;;;;;;;;;;17.75;67.07;100916.89;2253535;78;50744;-74
2023/02/22 13:23:53;;;;;;;;;;;;;;;17.75;66.98;100916.42;2253881;78;50346;-74
2023/02/22 13:27:01;;;;;;;;;;;;;;;17.92;66.51;100925.26;2253762;78;51475;-74
2023/02/22 13:30:03;;;;;;;;;;;;;;;18.00;66.20;100917.20;2230548;78;51013;-73
2023/02/22 13:33:09;;;;;;;;;;;;;;;18.04;66.02;100918.53;2253416;79;50819;-74
2023/02/22 13:36:15;;;;;;;;;;;;;;;18.08;65.87;100912.83;2253319;79;50458;-74
2023/02/22 13:39:26;;;;;;;;;;;;;;;18.06;65.89;100912.50;2253164;78;50451;-74
2023/02/22 13:42:41;;;;;;;;;;;;;;;18.06;65.91;100905.81;2253444;78;22323;-74
2023/02/22 13:46:03;;;;;;;;;;;;;;;18.03;65.98;100910.66;2253448;78;51513;-73
2023/02/22 13:49:21;;;;;;;;;;;;;;;17.98;66.19;100908.52;2253502;79;50427;-73
2023/02/22 13:52:26;;;;;;;;;;;;;;;17.89;66.56;100898.84;2252324;78;50496;-74
2023/02/22 13:55:31;;;;;;;;;;;;;;;17.83;66.78;100906.23;2226356;78;51164;-73
2023/02/22 13:58:32;;;;;;;;;;;;;;;17.84;66.83;100892.66;2264998;78;22204;-74
2023/02/22 14:01:46;;;;;;;;;;;;;;;17.98;66.46;100906.33;2264908;78;51523;-75
2023/02/22 14:04:48;;;;;;;;;;;;;;;18.03;66.38;100907.98;2265604;78;51494;-74
2023/02/22 14:07:49;;;;;;;;;;;;;;;18.04;66.33;100902.47;2210851;78;49742;-74
2023/02/22 14:10:53;;;;;;;;;;;;;;;18.06;66.24;100900.97;2258388;78;50424;-73
2023/02/22 14:13:59;;;;;;;;;;;;;;;17.99;67.67;100903.48;2215402;79;50399;-75
2023/02/22 14:17:02;;;;;;;;;;;;;;;17.85;67.83;100902.85;2218881;80;22225;-74
2023/02/22 14:20:13;;;;;;;;;;;;;;;17.74;66.09;100896.00;2187046;80;50095;-73
2023/02/22 14:23:15;;;;;;;;;;;;;;;17.77;65.64;100895.64;2239549;78;22354;-73
2023/02/22 14:26:18;;;;;;;;;;;;;;;17.78;65.97;100891.98;2248704;79;51464;-75
2023/02/22 14:29:20;;;;;;;;;;;;;;;17.79;66.32;100885.64;2253480;79;51576;-75
2023/02/22 14:32:29;;;;;;;;;;;;;;;17.84;66.86;100879.27;2230437;79;50868;-76
2023/02/22 14:35:28;;;;;;;;;;;;;;;17.89;66.97;100879.27;2252861;79;22266;-76
2023/02/22 14:38:30;;;;;;;;;;;;;;;17.97;66.91;100883.25;2253163;77;51801;-75
2023/02/22 14:41:32;;;;;;;;;;;;;;;18.04;67.13;100890.42;2253882;79;51458;-74
2023/02/22 14:44:45;;;;;;;;;;;;;;;18.08;67.15;100888.72;2230971;78;51029;-74
2023/02/22 14:47:59;;;;;;;;;;;;;;;18.07;67.58;100882.54;2253176;79;51497;-74
2023/02/22 14:50:59;;;;;;;;;;;;;;;18.08;67.58;100872.66;2253235;77;23780;-73
2023/02/22 14:54:08;;;;;;;;;;;;;;;18.05;66.87;100877.34;2229790;78;51217;-74
2023/02/22 14:57:14;;;;;;;;;;;;;;;18.00;66.97;100872.19;2233749;79;49604;-74
2023/02/22 15:00:21;;;;;;;;;;;;;;;17.95;67.19;100875.89;2254257;78;50408;-74
2023/02/22 15:03:36;;;;;;;;;;;;;;;17.91;67.32;100875.92;2254099;79;50418;-74
2023/02/22 15:06:34;;;;;;;;;;;;;;;17.91;67.35;100867.89;2228118;78;22212;-74
2023/02/22 15:09:36;;;;;;;;;;;;;;;17.88;67.47;100869.55;2254602;79;51543;-74
2023/02/22 15:12:37;;;;;;;;;;;;;;;17.87;67.57;100868.72;2255103;79;51516;-74
2023/02/22 15:15:43;;;;;;;;;;;;;;;17.87;67.52;100862.54;2230027;79;51518;-74
2023/02/22 15:18:45;;;;;;;;;;;;;;;17.85;67.46;100860.02;2254760;79;22336;-74
2023/02/22 15:21:48;;;;;;;;;;;;;;;17.83;67.44;100860.73;2229577;78;50798;-74
2023/02/22 15:24:59;;;;;;;;;;;;;;;17.81;67.37;100857.37;2256763;78;22150;-73
2023/02/22 15:28:02;;;;;;;;;;;;;;;17.79;67.40;100859.36;2257636;78;50715;-74
2023/02/22 15:31:22;;;;;;;;;;;;;;;17.80;67.16;100860.56;2255103;79;50453;-74
2023/02/22 15:34:26;;;;;;;;;;;;;;;17.79;67.20;100854.00;2230234;79;50966;-74
2023/02/22 15:37:28;;;;;;;;;;;;;;;17.77;67.28;100852.00;2255235;79;50720;-74
2023/02/22 15:40:32;;;;;;;;;;;;;;;17.74;67.55;100855.02;2254964;79;50505;-74
2023/02/22 15:43:34;;;;;;;;;;;;;;;17.76;67.16;100851.16;2253667;79;50446;-74
2023/02/22 15:46:35;;;;;;;;;;;;;;;17.90;66.65;100855.50;2212270;80;52386;-74
2023/02/22 15:49:37;;;;;;;;;;;;;;;17.89;67.59;100854.66;2222966;79;51509;-75
2023/02/22 15:52:39;;;;;;;;;;;;;;;17.92;67.36;100853.48;2256816;79;51484;-76
2023/02/22 15:55:42;;;;;;;;;;;;;;;17.95;68.07;100852.62;2242223;79;50745;-76
2023/02/22 15:58:45;;;;;;;;;;;;;;;17.99;68.06;100852.62;2184929;80;52374;-75
2023/02/22 16:01:46;;;;;;;;;;;;;;;18.00;67.96;100848.92;2203914;79;50699;-75
2023/02/22 16:04:48;;;;;;;;;;;;;;;17.98;67.68;100852.30;2253473;79;50411;-75
2023/02/22 16:07:50;;;;;;;;;;;;;;;17.97;67.58;100850.61;2243128;79;50378;-74
2023/02/22 16:10:56;;;;;;;;;;;;;;;17.97;67.37;100845.25;2180049;81;49562;-73
2023/02/22 16:14:04;;;;;;;;;;;;;;;17.97;67.13;100853.28;2208315;79;51427;-74
2023/02/22 16:17:13;;;;;;;;;;;;;;;18.00;67.31;100847.58;2178586;81;50698;-74
2023/02/22 16:20:16;;;;;;;;;;;;;;;18.01;67.42;100845.25;2219402;78;49913;-74
2023/02/22 16:23:26;;;;;;;;;;;;;;;18.03;67.39;100849.08;2234680;78;51892;-75
2023/02/22 16:26:28;;;;;;;;;;;;;;;18.03;67.47;100844.58;2253517;79;51540;-75
2023/02/22 16:29:30;;;;;;;;;;;;;;;18.04;67.47;100842.22;2246534;79;50753;-74
2023/02/22 16:32:32;;;;;;;;;;;;;;;18.05;67.48;100845.72;2257190;79;51515;-74
2023/02/22 16:35:34;;;;;;;;;;;;;;;18.05;67.47;100839.03;2211796;78;51000;-75
2023/02/22 16:38:38;;;;;;;;;;;;;;;18.06;67.51;100843.39;2223471;79;51435;-73
2023/02/22 16:41:39;;;;;;;;;;;;;;;18.07;67.56;100839.70;2255770;79;21635;-75
2023/02/22 16:44:40;;;;;;;;;;;;;;;18.09;67.53;100839.53;2237291;78;50441;-73
2023/02/22 16:47:42;;;;;;;;;;;;;;;18.09;67.56;100844.38;2253802;79;50305;-73
2023/02/22 16:50:44;;;;;;;;;;;;;;;18.11;67.51;100844.19;2242654;78;50476;-74
2023/02/22 16:53:45;;;;;;;;;;;;;;;18.11;67.48;100840.17;2257030;79;51473;-75
2023/02/22 16:56:47;;;;;;;;;;;;;;;18.11;67.47;100838.35;2252385;79;51598;-74
2023/02/22 16:59:50;;;;;;;;;;;;;;;18.11;67.49;100841.51;2209112;78;52444;-74
2023/02/22 17:02:52;;;;;;;;;;;;;;;18.11;67.47;100836.16;2257265;77;22317;-74
2023/02/22 17:05:53;;;;;;;;;;;;;;;18.11;67.53;100836.16;2206647;79;51601;-73
2023/02/22 17:08:55;;;;;;;;;;;;;;;18.11;67.53;100838.83;2248503;79;50444;-74
2023/02/22 17:11:56;;;;;;;;;;;;;;;18.10;67.45;100833.98;2253518;79;50430;-73
2023/02/22 17:14:58;;;;;;;;;;;;;;;18.12;67.46;100831.14;2216478;79;50103;-73
2023/02/22 17:18:00;;;;;;;;;;;;;;;18.11;67.50;100835.67;2221538;78;51553;-73
2023/02/22 17:21:02;;;;;;;;;;;;;;;18.13;67.49;100824.77;2264821;78;50368;-74
2023/02/22 17:24:04;;;;;;;;;;;;;;;18.13;67.45;100832.80;2237224;78;51560;-75
2023/02/22 17:27:05;;;;;;;;;;;;;;;18.10;67.43;100831.30;2203537;78;50973;-75
2023/02/22 17:30:12;;;;;;;;;;;;;;;18.05;67.37;100837.18;2223334;79;51562;-75
2023/02/22 17:33:12;;;;;;;;;;;;;;;18.03;67.48;100833.01;2215068;79;22345;-74
2023/02/22 17:36:14;;;;;;;;;;;;;;;18.00;67.52;100829.34;2215207;80;50136;-72
2023/02/22 17:39:15;;;;;;;;;;;;;;;17.98;67.55;100832.70;2163218;80;50089;-71
2023/02/22 17:42:17;;;;;;;;;;;;;;;17.96;67.42;100828.05;2193215;80;50765;-73
2023/02/22 17:45:18;;;;;;;;;;;;;;;17.95;67.26;100836.56;2215048;80;50778;-72
2023/02/22 17:48:20;;;;;;;;;;;;;;;17.95;67.30;100827.19;2193026;80;51506;-72
2023/02/22 17:51:22;;;;;;;;;;;;;;;17.97;67.21;100827.02;2163369;80;51143;-73
2023/02/22 17:54:25;;;;;;;;;;;;;;;17.93;67.50;100833.73;2220447;77;50423;-73
2023/02/22 17:57:28;;;;;;;;;;;;;;;17.93;67.50;100830.57;2233774;78;50764;-72
2023/02/22 18:00:34;;;;;;;;;;;;;;;17.93;67.42;100833.25;2223058;78;50733;-72
2023/02/22 18:03:33;;;;;;;;;;;;;;;17.93;67.41;100831.91;2190927;80;22170;-72
2023/02/22 18:06:36;;;;;;;;;;;;;;;17.95;67.32;100830.37;2215556;80;50466;-71
2023/02/22 18:09:38;;;;;;;;;;;;;;;17.94;67.31;100822.85;2235729;79;50714;-72
2023/02/22 18:12:40;;;;;;;;;;;;;;;17.94;67.28;100830.89;2249038;79;51542;-72
2023/02/22 18:15:42;;;;;;;;;;;;;;;17.93;67.25;100836.41;2220147;78;51099;-72
2023/02/22 18:18:43;;;;;;;;;;;;;;;17.93;67.33;100824.36;2232700;78;51451;-74
2023/02/22 18:21:45;;;;;;;;;;;;;;;17.91;67.65;100823.20;2264820;78;51481;-73
2023/02/22 18:24:47;;;;;;;;;;;;;;;17.91;67.57;100825.06;2264350;78;50706;-75
2023/02/22 18:27:48;;;;;;;;;;;;;;;17.86;67.85;100819.39;2209595;79;50954;-73
2023/02/22 18:30:50;;;;;;;;;;;;;;;17.88;67.87;100818.20;2253134;79;51581;-75
2023/02/22 18:33:52;;;;;;;;;;;;;;;17.89;67.93;100818.53;2245302;79;50757;-74
2023/02/22 18:36:54;;;;;;;;;;;;;;;17.91;67.94;100820.53;2236325;79;51480;-74
2023/02/22 18:39:55;;;;;;;;;;;;;;;17.90;67.98;100818.02;2181899;79;50037;-75
2023/02/22 18:42:57;;;;;;;;;;;;;;;17.90;68.01;100822.86;2216185;80;50392;-74
2023/02/22 18:46:14;;;;;;;;;;;;;;;17.90;67.95;100805.46;2215524;80;50476;-74
2023/02/22 18:49:16;;;;;;;;;;;;;;;17.91;67.80;100820.53;2222004;78;52429;-72
2023/02/22 18:52:17;;;;;;;;;;;;;;;17.90;67.76;100816.67;2171857;79;52404;-73
2023/02/22 18:55:20;;;;;;;;;;;;;;;17.91;67.59;100808.48;2215621;80;50386;-72
2023/02/22 18:58:21;;;;;;;;;;;;;;;17.91;67.73;100809.83;2212524;80;50773;-73
2023/02/22 19:01:23;;;;;;;;;;;;;;;17.87;67.82;100813.02;2212433;80;51581;-71
2023/02/22 19:04:24;;;;;;;;;;;;;;;17.86;67.89;100807.34;2169771;80;51074;-72
2023/02/22 19:07:26;;;;;;;;;;;;;;;17.83;67.86;100809.87;2214882;80;50724;-72
2023/02/22 19:10:28;;;;;;;;;;;;;;;17.79;67.94;100809.84;2215319;80;51585;-72
2023/02/22 19:13:30;;;;;;;;;;;;;;;17.77;68.01;100804.64;2221072;78;50745;-74
2023/02/22 19:16:31;;;;;;;;;;;;;;;17.74;68.12;100799.65;2172050;79;49339;-74
2023/02/22 19:19:33;;;;;;;;;;;;;;;17.73;67.65;100802.52;2217337;79;51483;-73
2023/02/22 19:22:35;;;;;;;;;;;;;;;17.69;68.01;100810.55;2215026;79;50406;-74
2023/02/22 19:25:39;;;;;;;;;;;;;;;17.70;68.10;100808.19;2191226;79;50436;-74
2023/02/22 19:28:41;;;;;;;;;;;;;;;17.71;68.12;100808.03;2217747;79;22217;-74
2023/02/22 19:31:44;;;;;;;;;;;;;;;17.76;67.76;100811.02;2226485;78;50390;-76
2023/02/22 19:34:45;;;;;;;;;;;;;;;17.77;67.76;100811.85;2191247;80;22329;-75
2023/02/22 19:37:47;;;;;;;;;;;;;;;17.77;67.81;100814.02;2221240;79;50708;-75
2023/02/22 19:40:49;;;;;;;;;;;;;;;17.75;67.88;100805.35;2178253;78;51151;-75
2023/02/22 19:43:52;;;;;;;;;;;;;;;17.74;67.78;100818.38;2219058;79;51552;-74
2023/02/22 19:46:58;;;;;;;;;;;;;;;17.75;67.74;100817.88;2218159;79;51488;-75
2023/02/22 19:49:57;;;;;;;;;;;;;;;17.76;67.64;100824.91;2226161;79;22161;-74
2023/02/22 19:52:58;;;;;;;;;;;;;;;17.71;67.80;100823.26;2187880;80;50386;-73
2023/02/22 19:56:00;;;;;;;;;;;;;;;17.73;67.73;100818.58;2200419;79;50272;-75
2023/02/22 19:59:08;;;;;;;;;;;;;;;17.75;67.64;100820.07;2213899;80;50454;-74
2023/02/22 20:02:06;;;;;;;;;;;;;;;17.74;67.77;100816.22;2214060;80;22264;-73
2023/02/22 20:05:09;;;;;;;;;;;;;;;17.74;67.77;100817.55;2186147;78;51247;-72
2023/02/22 20:08:10;;;;;;;;;;;;;;;17.71;68.08;100812.55;2230326;79;51441;-73
2023/02/22 20:11:13;;;;;;;;;;;;;;;17.71;68.43;100817.40;2255014;79;50466;-74
2023/02/22 20:14:18;;;;;;;;;;;;;;;17.72;68.63;100815.55;2248116;79;50703;-74
2023/02/22 20:17:20;;;;;;;;;;;;;;;17.71;68.75;100811.22;2190035;80;50741;-73
2023/02/22 20:20:23;;;;;;;;;;;;;;;17.75;68.34;100812.52;2174526;80;49920;-73
2023/02/22 20:23:24;;;;;;;;;;;;;;;17.75;68.21;100812.04;2220381;79;50416;-74
2023/02/22 20:26:26;;;;;;;;;;;;;;;17.71;68.36;100807.20;2230255;79;50423;-74
2023/02/22 20:29:31;;;;;;;;;;;;;;;17.71;68.36;100809.87;2190776;80;51499;-73
2023/02/22 20:32:32;;;;;;;;;;;;;;;17.70;67.73;100809.53;2231131;78;50399;-74
2023/02/22 20:35:34;;;;;;;;;;;;;;;17.71;67.48;100804.52;2220122;78;50744;-74
2023/02/22 20:38:36;;;;;;;;;;;;;;;17.70;67.47;100810.87;2217895;79;50726;-74
2023/02/22 20:41:37;;;;;;;;;;;;;;;17.72;67.27;100804.84;2204964;80;49186;-75
2023/02/22 20:44:39;;;;;;;;;;;;;;;17.71;67.27;100804.52;2246620;79;50710;-77
2023/02/22 20:47:40;;;;;;;;;;;;;;;17.71;67.61;100806.69;2191814;80;50779;-76
2023/02/22 20:50:42;;;;;;;;;;;;;;;17.72;67.94;100802.17;2223348;79;51476;-77
2023/02/22 20:53:44;;;;;;;;;;;;;;;17.71;67.55;100805.86;2199417;78;50976;-77
2023/02/22 20:56:45;;;;;;;;;;;;;;;17.70;67.42;100797.01;2227793;78;52292;-76
2023/02/22 20:59:47;;;;;;;;;;;;;;;17.69;67.23;100795.83;2223803;79;50748;-76
2023/02/22 21:02:49;;;;;;;;;;;;;;;17.69;67.20;100798.51;2215978;80;50370;-76
2023/02/22 21:05:50;;;;;;;;;;;;;;;17.69;67.09;100796.66;2204684;79;51209;-76
2023/02/22 21:08:53;;;;;;;;;;;;;;;17.69;67.25;100799.84;2216206;80;50474;-76
2023/02/22 21:11:54;;;;;;;;;;;;;;;17.72;67.25;100804.84;2236706;79;50658;-78
2023/02/22 21:14:56;;;;;;;;;;;;;;;17.72;67.19;100807.52;2253499;79;50354;-76
2023/02/22 21:17:57;;;;;;;;;;;;;;;17.70;67.45;100803.70;2196486;79;49602;-76
2023/02/22 21:21:08;;;;;;;;;;;;;;;17.72;67.14;100804.33;2179661;80;50811;-76
2023/02/22 21:24:07;;;;;;;;;;;;;;;17.71;67.29;100804.52;2214899;79;22324;-77
2023/02/22 21:27:11;;;;;;;;;;;;;;;17.68;67.20;100800.36;2254547;79;50415;-77
2023/02/22 21:30:12;;;;;;;;;;;;;;;17.69;67.04;100798.00;2253638;78;22206;-75
2023/02/22 21:33:16;;;;;;;;;;;;;;;17.68;67.06;100798.19;2231450;79;50772;-76
2023/02/22 21:36:18;;;;;;;;;;;;;;;17.67;67.05;100803.19;2256022;79;50750;-76
2023/02/22 21:39:21;;;;;;;;;;;;;;;17.66;66.89;100787.64;2254913;79;51569;-76
2023/02/22 21:42:23;;;;;;;;;;;;;;;17.67;67.15;100793.31;2214689;78;51613;-76
2023/02/22 21:45:25;;;;;;;;;;;;;;;17.68;66.93;100788.83;2228904;79;50461;-76
2023/02/22 21:48:27;;;;;;;;;;;;;;;17.66;66.84;100787.64;2228343;79;51895;-76
2023/02/22 21:51:31;;;;;;;;;;;;;;;17.67;66.90;100789.81;2253403;79;51499;-76